createdAt,value
2022-08-01T00:00:42.093Z,94822.02
2022-08-01T00:03:08.469Z,94822.97
2022-08-01T00:05:34.909Z,94822.14
2022-08-01T00:08:01.295Z,94816.19
2022-08-01T00:10:27.683Z,94812.77
2022-08-01T00:12:54.072Z,94818.27
2022-08-01T00:15:20.582Z,94819.24
2022-08-01T00:17:46.966Z,94823.25
2022-08-01T00:20:13.451Z,94822.78
2022-08-01T00:22:39.837Z,94825.84
2022-08-01T00:25:06.221Z,94833.25
2022-08-01T00:27:32.631Z,94837.64
2022-08-01T00:30:13.701Z,94838.94
2022-08-01T00:32:25.400Z,94840.23
2022-08-01T00:34:51.805Z,94843.29
2022-08-01T00:37:18.190Z,94838.94
2022-08-01T00:39:44.587Z,94836.81
2022-08-01T00:42:11.002Z,94838.11
2022-08-01T00:44:37.388Z,94844.11
2022-08-01T00:47:05.634Z,94840.83
2022-08-01T00:49:30.348Z,94845.18
2022-08-01T00:51:56.659Z,94839.06
2022-08-01T00:54:23.036Z,94836.94
2022-08-01T00:56:49.423Z,94836.47
2022-08-01T00:59:15.793Z,94839.06
2022-08-01T01:01:46.745Z,94839.06
2022-08-01T01:04:08.867Z,94846.00
2022-08-01T01:06:34.996Z,94837.10
2022-08-01T01:09:03.508Z,94830.16
2022-08-01T01:11:27.808Z,94825.93
2022-08-01T01:13:54.190Z,94817.34
2022-08-01T01:16:22.047Z,94816.05
2022-08-01T01:18:46.990Z,94814.64
2022-08-01T01:21:13.379Z,94818.17
2022-08-01T01:23:39.777Z,94813.00
2022-08-01T01:26:06.230Z,94817.70
2022-08-01T01:28:32.611Z,94812.17
2022-08-01T01:30:59.007Z,94814.29
2022-08-01T01:33:25.387Z,94813.00
2022-08-01T01:35:51.767Z,94808.77
2022-08-01T01:38:18.153Z,94805.70
2022-08-01T01:40:44.539Z,94804.88
2022-08-01T01:43:11.047Z,94803.12
2022-08-01T01:45:37.431Z,94799.23
2022-08-01T01:48:05.660Z,94799.71
2022-08-01T01:50:30.230Z,94791.12
2022-08-01T01:52:56.604Z,94789.52
2022-08-01T01:55:22.991Z,94790.66
2022-08-01T01:57:49.361Z,94789.83
2022-08-01T02:00:15.747Z,94794.19
2022-08-01T02:02:42.188Z,94786.11
2022-08-01T02:05:08.538Z,94783.05
2022-08-01T02:07:34.916Z,94785.48
2022-08-01T02:10:01.306Z,94781.95
2022-08-01T02:12:27.686Z,94781.00
2022-08-01T02:14:54.072Z,94783.59
2022-08-01T02:17:20.461Z,94781.78
2022-08-01T02:19:46.851Z,94782.42
2022-08-01T02:22:13.225Z,94784.19
2022-08-01T02:24:39.634Z,94788.22
2022-08-01T02:27:06.025Z,94783.52
2022-08-01T02:29:32.402Z,94779.45
2022-08-01T02:31:58.788Z,94777.18
2022-08-01T02:34:25.174Z,94777.94
2022-08-01T02:36:51.559Z,94776.64
2022-08-01T02:39:17.964Z,94769.05
2022-08-01T02:41:44.341Z,94773.05
2022-08-01T02:44:10.740Z,94779.98
2022-08-01T02:46:37.124Z,94771.02
2022-08-01T02:49:03.551Z,94777.02
2022-08-01T02:51:29.900Z,94774.09
2022-08-01T02:53:56.356Z,94774.09
2022-08-01T02:56:22.737Z,94766.95
2022-08-01T02:58:49.129Z,94775.85
2022-08-01T03:01:15.659Z,94774.84
2022-08-01T03:03:41.987Z,94775.34
2022-08-01T03:06:08.366Z,94779.54
2022-08-01T03:08:34.755Z,94781.47
2022-08-01T03:11:01.163Z,94773.04
2022-08-01T03:13:27.547Z,94779.35
2022-08-01T03:15:53.929Z,94771.05
2022-08-01T03:18:20.318Z,94777.67
2022-08-01T03:20:46.712Z,94775.88
2022-08-01T03:23:13.097Z,94772.34
2022-08-01T03:25:41.116Z,94776.22
2022-08-01T03:28:05.862Z,94786.72
2022-08-01T03:30:32.270Z,94781.83
2022-08-01T03:32:58.658Z,94781.33
2022-08-01T03:35:25.034Z,94789.59
2022-08-01T03:38:14.898Z,94789.59
2022-08-01T03:40:17.956Z,94792.37
2022-08-01T03:42:44.348Z,94793.79
2022-08-01T03:45:13.336Z,94797.67
2022-08-01T03:47:40.841Z,94798.96
2022-08-01T03:50:03.507Z,94808.36
2022-08-01T03:52:29.894Z,94799.44
2022-08-01T03:54:58.032Z,94800.41
2022-08-01T03:57:34.974Z,94800.88
2022-08-01T03:59:49.071Z,94790.66
2022-08-01T04:02:15.459Z,94795.55
2022-08-01T04:04:41.837Z,94791.67
2022-08-01T04:07:08.249Z,94789.36
2022-08-01T04:09:34.622Z,94792.58
2022-08-01T04:12:01.008Z,94784.33
2022-08-01T04:14:27.415Z,94787.13
2022-08-01T04:16:53.800Z,94788.08
2022-08-01T04:19:20.323Z,94789.38
2022-08-01T04:21:46.784Z,94794.81
2022-08-01T04:24:13.174Z,94799.12
2022-08-01T04:26:39.554Z,94798.42
2022-08-01T04:29:05.959Z,94797.00
2022-08-01T04:31:32.322Z,94792.78
2022-08-01T04:33:58.728Z,94790.00
2022-08-01T04:36:25.129Z,94798.10
2022-08-01T04:38:51.561Z,94797.59
2022-08-01T04:41:17.940Z,94795.84
2022-08-01T04:43:44.526Z,94795.52
2022-08-01T04:46:10.708Z,94786.86
2022-08-01T04:48:37.113Z,94779.73
2022-08-01T04:51:03.492Z,94792.85
2022-08-01T04:53:29.878Z,94790.73
2022-08-01T04:55:56.276Z,94791.21
2022-08-01T04:58:22.653Z,94795.63
2022-08-01T05:00:50.828Z,94783.65
2022-08-01T05:03:15.425Z,94770.73
2022-08-01T05:05:41.810Z,94774.95
2022-08-01T05:08:08.181Z,94781.14
2022-08-01T05:10:34.573Z,94778.55
2022-08-01T05:13:00.945Z,94776.63
2022-08-01T05:15:28.287Z,94776.03
2022-08-01T05:17:53.735Z,94776.03
2022-08-01T05:20:20.149Z,94774.27
2022-08-01T05:22:46.521Z,94774.27
2022-08-01T05:25:14.609Z,94773.30
2022-08-01T05:27:39.293Z,94772.35
2022-08-01T05:30:05.670Z,94782.57
2022-08-01T05:32:32.053Z,94783.27
2022-08-01T05:34:58.435Z,94785.38
2022-08-01T05:37:24.816Z,94784.56
2022-08-01T05:39:51.199Z,94779.27
2022-08-01T05:42:17.589Z,94783.62
2022-08-01T05:44:43.980Z,94775.86
2022-08-01T05:47:10.366Z,94780.21
2022-08-01T05:49:36.818Z,94777.47
2022-08-01T05:52:03.881Z,94780.75
2022-08-01T05:54:29.503Z,94780.75
2022-08-01T05:56:55.917Z,94780.41
2022-08-01T05:59:22.319Z,94790.27
2022-08-01T06:01:48.705Z,94783.14
2022-08-01T06:04:15.080Z,94782.36
2022-08-01T06:06:41.482Z,94783.14
2022-08-01T06:09:07.983Z,94784.62
2022-08-01T06:11:34.385Z,94786.75
2022-08-01T06:14:00.856Z,94788.79
2022-08-01T06:16:27.232Z,94788.91
2022-08-01T06:18:56.775Z,94788.79
2022-08-01T06:21:20.305Z,94791.50
2022-08-01T06:23:46.664Z,94785.98
2022-08-01T06:26:13.072Z,94784.69
2022-08-01T06:28:39.525Z,94781.98
2022-08-01T06:31:05.921Z,94782.57
2022-08-01T06:33:32.329Z,94776.92
2022-08-01T06:35:58.715Z,94790.80
2022-08-01T06:38:25.104Z,94782.63
2022-08-01T06:40:51.490Z,94778.08
2022-08-01T06:43:17.895Z,94770.33
2022-08-01T06:45:44.280Z,94767.19
2022-08-01T06:48:10.676Z,94762.56
2022-08-01T06:50:38.821Z,94761.62
2022-08-01T06:53:03.450Z,94765.08
2022-08-01T06:55:30.783Z,94759.91
2022-08-01T06:57:56.219Z,94754.81
2022-08-01T07:00:22.618Z,94748.47
2022-08-01T07:02:49.032Z,94754.94
2022-08-01T07:05:15.458Z,94755.56
2022-08-01T07:07:41.850Z,94745.38
2022-08-01T07:10:08.257Z,94710.17
2022-08-01T07:12:34.660Z,94752.51
2022-08-01T07:15:01.060Z,94755.20
2022-08-01T07:17:27.479Z,94751.13
2022-08-01T07:19:54.240Z,94761.47
2022-08-01T07:22:20.979Z,94768.09
2022-08-01T07:24:47.117Z,94766.64
2022-08-01T07:27:26.121Z,94764.75
2022-08-01T07:29:39.896Z,94762.92
2022-08-01T07:32:06.635Z,94758.06
2022-08-01T07:34:32.705Z,94761.94
2022-08-01T07:36:59.174Z,94767.86
2022-08-01T07:39:25.585Z,94754.42
2022-08-01T07:42:07.796Z,94751.62
2022-08-01T07:44:18.360Z,94751.02
2022-08-01T07:46:44.815Z,94751.30
2022-08-01T07:49:11.275Z,94754.90
2022-08-01T07:51:37.599Z,94752.09
2022-08-01T07:54:03.984Z,94753.26
2022-08-01T07:56:30.437Z,94746.33
2022-08-01T07:58:56.848Z,94747.62
2022-08-01T08:01:24.298Z,94749.85
2022-08-01T08:03:49.713Z,94749.10
2022-08-01T08:06:16.096Z,94757.24
2022-08-01T08:08:42.485Z,94758.34
2022-08-01T08:11:08.910Z,94768.48
2022-08-01T08:13:35.286Z,94760.39
2022-08-01T08:16:01.743Z,94764.27
2022-08-01T08:18:30.584Z,94768.14
2022-08-01T08:20:56.951Z,94768.36
2022-08-01T08:23:42.007Z,94776.16
2022-08-01T08:25:50.932Z,94766.30
2022-08-01T08:28:16.108Z,94758.08
2022-08-01T08:30:42.488Z,94755.65
2022-08-01T08:33:13.645Z,94757.48
2022-08-01T08:35:40.251Z,94756.03
2022-08-01T08:38:01.702Z,94767.13
2022-08-01T08:40:28.157Z,94764.22
2022-08-01T08:42:54.558Z,94767.06
2022-08-01T08:45:20.949Z,94761.95
2022-08-01T08:47:47.337Z,94755.55
2022-08-01T08:50:13.716Z,94756.00
2022-08-01T08:52:40.114Z,94763.93
2022-08-01T08:55:06.499Z,94761.36
2022-08-01T08:57:34.302Z,94750.84
2022-08-01T08:59:59.323Z,94754.48
2022-08-01T09:02:25.709Z,94754.27
2022-08-01T09:04:52.095Z,94755.30
2022-08-01T09:07:18.527Z,94755.36
2022-08-01T09:09:44.954Z,94746.33
2022-08-01T09:12:11.534Z,94749.53
2022-08-01T09:14:37.739Z,94750.05
2022-08-01T09:17:04.124Z,94737.15
2022-08-01T09:19:38.889Z,94744.50
2022-08-01T09:21:58.423Z,94747.35
2022-08-01T09:24:30.396Z,94742.66
2022-08-01T09:26:49.684Z,94744.42
2022-08-01T09:29:16.107Z,94743.67
2022-08-01T09:31:42.512Z,94741.75
2022-08-01T09:34:09.125Z,94744.14
2022-08-01T09:36:35.304Z,94731.76
2022-08-01T09:39:01.686Z,94731.76
2022-08-01T09:41:28.069Z,94732.30
2022-08-01T09:43:54.462Z,94735.83
2022-08-01T09:46:20.836Z,94733.66
2022-08-01T09:48:49.340Z,94726.03
2022-08-01T09:51:13.610Z,94726.94
2022-08-01T09:53:39.990Z,94730.04
2022-08-01T09:56:06.390Z,94733.38
2022-08-01T09:58:32.800Z,94733.38
2022-08-01T10:00:59.224Z,94728.88
2022-08-01T10:03:25.753Z,94716.16
2022-08-01T10:05:52.013Z,94731.93
2022-08-01T10:08:23.219Z,94724.05
2022-08-01T10:10:44.768Z,94721.12
2022-08-01T10:13:11.154Z,94714.34
2022-08-01T10:15:39.742Z,94723.58
2022-08-01T10:18:06.141Z,94718.88
2022-08-01T10:20:33.865Z,94715.12
2022-08-01T10:23:00.413Z,94708.19
2022-08-01T10:25:41.964Z,94710.02
2022-08-01T10:27:52.076Z,94698.83
2022-08-01T10:30:19.771Z,94700.03
2022-08-01T10:32:44.888Z,94702.61
2022-08-01T10:35:14.754Z,94700.38
2022-08-01T10:37:51.807Z,94707.97
2022-08-01T10:40:28.827Z,94713.81
2022-08-01T10:42:30.430Z,94710.18
2022-08-01T10:44:56.851Z,94703.72
2022-08-01T10:47:26.921Z,94712.45
2022-08-01T10:49:49.673Z,94704.34
2022-08-01T10:52:16.073Z,94701.26
2022-08-01T10:54:52.507Z,94696.02
2022-08-01T10:57:09.293Z,94701.82
2022-08-01T10:59:50.776Z,94702.77
2022-08-01T11:02:01.697Z,94694.59
2022-08-01T11:04:27.989Z,94688.25
2022-08-01T11:06:54.372Z,94681.31
2022-08-01T11:09:20.804Z,94689.52
2022-08-01T11:11:47.184Z,94687.22
2022-08-01T11:14:13.582Z,94682.69
2022-08-01T11:16:40.007Z,94691.67
2022-08-01T11:19:06.410Z,94690.72
2022-08-01T11:21:57.023Z,94689.27
2022-08-01T11:23:59.192Z,94683.25
2022-08-01T11:26:29.261Z,94681.48
2022-08-01T11:29:17.848Z,94680.66
2022-08-01T11:31:18.452Z,94681.98
2022-08-01T11:33:45.943Z,94681.02
2022-08-01T11:36:11.266Z,94692.84
2022-08-01T11:38:37.690Z,94650.33
2022-08-01T11:41:04.131Z,94672.34
2022-08-01T11:43:30.511Z,94671.39
2022-08-01T11:45:56.904Z,94669.75
2022-08-01T11:48:23.312Z,94668.27
2022-08-01T11:50:49.770Z,94682.74
2022-08-01T11:53:16.162Z,94672.41
2022-08-01T11:55:42.556Z,94676.66
2022-08-01T11:58:22.259Z,94674.89
2022-08-01T12:00:35.389Z,94677.12
2022-08-01T12:03:01.919Z,94671.64
2022-08-01T12:05:28.325Z,94671.36
2022-08-01T12:07:54.771Z,94670.38
2022-08-01T12:10:21.125Z,94665.84
2022-08-01T12:12:47.569Z,94664.30
2022-08-01T12:15:13.958Z,94664.95
2022-08-01T12:17:40.361Z,94658.12
2022-08-01T12:20:06.760Z,94661.90
2022-08-01T12:22:34.146Z,94670.95
2022-08-01T12:24:59.586Z,94665.94
2022-08-01T12:27:26.010Z,94668.05
2022-08-01T12:29:52.398Z,94668.84
2022-08-01T12:32:18.806Z,94669.34
2022-08-01T12:34:45.229Z,94655.06
2022-08-01T12:37:11.647Z,94659.47
2022-08-01T12:39:40.195Z,94665.97
2022-08-01T12:42:04.849Z,94661.58
2022-08-01T12:44:33.069Z,94661.08
2022-08-01T12:46:57.676Z,94668.23
2022-08-01T12:49:25.152Z,94667.23
2022-08-01T12:51:57.401Z,94665.97
2022-08-01T12:54:17.870Z,94661.95
2022-08-01T12:56:44.268Z,94665.02
2022-08-01T12:59:10.658Z,94657.45
2022-08-01T13:01:37.113Z,94655.55
2022-08-01T13:04:03.436Z,94646.27
2022-08-01T13:06:29.846Z,94654.53
2022-08-01T13:08:56.228Z,94654.03
2022-08-01T13:11:22.630Z,94657.75
2022-08-01T13:13:49.026Z,94655.06
2022-08-01T13:16:25.850Z,94653.77
2022-08-01T13:18:41.793Z,94655.22
2022-08-01T13:21:08.218Z,94652.20
2022-08-01T13:24:03.021Z,94651.39
2022-08-01T13:26:00.999Z,94650.56
2022-08-01T13:28:27.404Z,94641.59
2022-08-01T13:30:53.807Z,94640.54
2022-08-01T13:33:20.231Z,94635.66
2022-08-01T13:35:46.622Z,94634.34
2022-08-01T13:38:13.019Z,94632.94
2022-08-01T13:40:39.428Z,94635.00
2022-08-01T13:43:05.825Z,94637.23
2022-08-01T13:45:32.230Z,94627.87
2022-08-01T13:48:03.550Z,94627.63
2022-08-01T13:50:25.035Z,94631.75
2022-08-01T13:52:51.430Z,94626.66
2022-08-01T13:55:17.832Z,94631.80
2022-08-01T13:57:44.261Z,94626.18
2022-08-01T14:00:10.674Z,94627.23
2022-08-01T14:02:37.063Z,94615.94
2022-08-01T14:05:03.475Z,94629.81
2022-08-01T14:07:29.870Z,94632.88
2022-08-01T14:10:05.236Z,94619.34
2022-08-01T14:12:23.881Z,94622.45
2022-08-01T14:14:49.102Z,94618.71
2022-08-01T14:17:15.488Z,94621.16
2022-08-01T14:19:46.135Z,94621.77
2022-08-01T14:22:08.734Z,94622.30
2022-08-01T14:24:34.751Z,94621.83
2022-08-01T14:27:01.138Z,94624.54
2022-08-01T14:29:59.933Z,94621.16
2022-08-01T14:31:54.893Z,94622.88
2022-08-01T14:34:20.328Z,94630.73
2022-08-01T14:36:46.703Z,94628.09
2022-08-01T14:39:15.011Z,94624.09
2022-08-01T14:41:39.484Z,94624.84
2022-08-01T14:44:05.882Z,94630.86
2022-08-01T14:46:34.011Z,94625.70
2022-08-01T14:48:58.827Z,94629.27
2022-08-01T14:51:25.219Z,94636.86
2022-08-01T14:53:53.112Z,94636.48
2022-08-01T14:56:18.025Z,94632.16
2022-08-01T14:58:44.408Z,94632.32
2022-08-01T15:01:10.862Z,94633.68
2022-08-01T15:03:37.177Z,94635.50
2022-08-01T15:06:03.569Z,94647.62
2022-08-01T15:08:29.956Z,94645.00
2022-08-01T15:10:56.420Z,94649.83
2022-08-01T15:13:22.873Z,94643.52
2022-08-01T15:15:49.379Z,94641.88
2022-08-01T15:18:17.740Z,94641.95
2022-08-01T15:20:42.206Z,94644.53
2022-08-01T15:23:08.636Z,94642.61
2022-08-01T15:25:40.832Z,94638.38
2022-08-01T15:28:01.406Z,94636.09
2022-08-01T15:30:27.794Z,94637.54
2022-08-01T15:32:54.184Z,94634.45
2022-08-01T15:35:20.984Z,94639.59
2022-08-01T15:37:47.373Z,94639.30
2022-08-01T15:40:13.766Z,94631.55
2022-08-01T15:42:40.156Z,94635.23
2022-08-01T15:45:06.532Z,94632.30
2022-08-01T15:47:32.919Z,94628.23
2022-08-01T15:50:00.729Z,94633.44
2022-08-01T15:52:30.749Z,94638.83
2022-08-01T15:54:52.121Z,94639.97
2022-08-01T15:57:18.502Z,94634.95
2022-08-01T15:59:44.913Z,94637.72
2022-08-01T16:02:11.652Z,94630.25
2022-08-01T16:04:38.994Z,94633.50
2022-08-01T16:07:04.091Z,94634.38
2022-08-01T16:09:30.466Z,94636.09
2022-08-01T16:11:56.888Z,94635.95
2022-08-01T16:14:23.260Z,94641.73
2022-08-01T16:16:49.652Z,94644.00
2022-08-01T16:19:17.638Z,94643.24
2022-08-01T16:21:46.062Z,94643.72
2022-08-01T16:24:08.813Z,94641.95
2022-08-01T16:26:35.228Z,94644.38
2022-08-01T16:29:01.604Z,94650.59
2022-08-01T16:32:01.313Z,94650.84
2022-08-01T16:33:58.218Z,94648.25
2022-08-01T16:36:20.766Z,94647.88
2022-08-01T16:38:47.152Z,94648.48
2022-08-01T16:41:19.592Z,94650.94
2022-08-01T16:43:39.915Z,94654.47
2022-08-01T16:46:06.356Z,94647.34
2022-08-01T16:48:32.774Z,94651.34
2022-08-01T16:50:59.163Z,94645.36
2022-08-01T16:53:25.549Z,94652.16
2022-08-01T16:55:51.934Z,94650.20
2022-08-01T16:58:18.313Z,94658.91
2022-08-01T17:00:44.694Z,94658.16
2022-08-01T17:03:17.303Z,94661.56
2022-08-01T17:05:37.467Z,94661.94
2022-08-01T17:08:03.846Z,94659.70
2022-08-01T17:10:30.235Z,94661.66
2022-08-01T17:12:57.821Z,94654.94
2022-08-01T17:15:23.014Z,94656.23
2022-08-01T17:17:49.403Z,94659.03
2022-08-01T17:20:15.782Z,94666.63
2022-08-01T17:22:42.161Z,94664.23
2022-08-01T17:25:08.556Z,94667.98
2022-08-01T17:27:34.932Z,94666.70
2022-08-01T17:30:01.384Z,94669.12
2022-08-01T17:32:27.753Z,94667.70
2022-08-01T17:34:54.144Z,94672.87
2022-08-01T17:37:20.528Z,94674.52
2022-08-01T17:39:46.907Z,94673.22
2022-08-01T17:42:13.344Z,94684.70
2022-08-01T17:44:41.581Z,94684.35
2022-08-01T17:47:06.376Z,94682.94
2022-08-01T17:49:54.456Z,94688.11
2022-08-01T17:51:58.847Z,94691.35
2022-08-01T17:54:25.395Z,94697.82
2022-08-01T17:56:51.618Z,94699.11
2022-08-01T17:59:18.014Z,94702.05
2022-08-01T18:01:45.266Z,94704.16
2022-08-01T18:04:10.885Z,94712.39
2022-08-01T18:06:37.303Z,94714.16
2022-08-01T18:09:03.717Z,94719.52
2022-08-01T18:11:37.675Z,94729.39
2022-08-01T18:13:56.529Z,94732.45
2022-08-01T18:16:22.912Z,94730.68
2022-08-01T18:18:49.300Z,94733.96
2022-08-01T18:21:15.680Z,94738.62
2022-08-01T18:23:51.445Z,94746.73
2022-08-01T18:26:08.530Z,94748.70
2022-08-01T18:28:38.092Z,94750.80
2022-08-01T18:31:01.270Z,94759.27
2022-08-01T18:33:27.657Z,94760.08
2022-08-01T18:35:54.235Z,94765.25
2022-08-01T18:38:20.455Z,94775.45
2022-08-01T18:40:46.796Z,94779.73
2022-08-01T18:43:13.182Z,94779.86
2022-08-01T18:45:42.777Z,94788.28
2022-08-01T18:48:05.959Z,94784.09
2022-08-01T18:50:32.345Z,94793.97
2022-08-01T18:52:58.724Z,94795.86
2022-08-01T18:55:25.167Z,94799.14
2022-08-01T18:57:51.543Z,94800.09
2022-08-01T19:00:17.922Z,94801.38
2022-08-01T19:02:44.336Z,94804.44
2022-08-01T19:05:10.747Z,94808.25
2022-08-01T19:08:05.520Z,94815.54
2022-08-01T19:10:03.515Z,94821.53
2022-08-01T19:12:29.900Z,94825.41
2022-08-01T19:14:56.280Z,94819.30
2022-08-01T19:17:22.664Z,94822.16
2022-08-01T19:19:49.044Z,94829.02
2022-08-01T19:22:15.425Z,94831.88
2022-08-01T19:24:41.860Z,94834.19
2022-08-01T19:27:08.537Z,94832.70
2022-08-01T19:29:35.939Z,94832.89
2022-08-01T19:32:01.007Z,94835.48
2022-08-01T19:34:27.403Z,94834.53
2022-08-01T19:36:53.810Z,94842.14
2022-08-01T19:39:20.251Z,94838.27
2022-08-01T19:41:46.634Z,94839.08
2022-08-01T19:44:13.021Z,94839.70
2022-08-01T19:46:39.481Z,94842.96
2022-08-01T19:49:05.861Z,94840.18
2022-08-01T19:51:33.868Z,94838.70
2022-08-01T19:53:58.605Z,94842.89
2022-08-01T19:56:24.990Z,94844.34
2022-08-01T19:58:51.366Z,94839.83
2022-08-01T20:01:17.761Z,94842.70
2022-08-01T20:03:44.275Z,94842.58
2022-08-01T20:06:10.555Z,94840.11
2022-08-01T20:08:36.964Z,94837.41
2022-08-01T20:11:05.638Z,94839.48
2022-08-01T20:13:39.202Z,94838.34
2022-08-01T20:15:56.128Z,94841.13
2022-08-01T20:18:22.506Z,94843.91
2022-08-01T20:20:48.959Z,94844.19
2022-08-01T20:23:17.841Z,94843.59
2022-08-01T20:25:41.724Z,94850.38
2022-08-01T20:28:08.107Z,94853.12
2022-08-01T20:30:34.534Z,94854.76
2022-08-01T20:33:00.915Z,94855.55
2022-08-01T20:35:52.178Z,94853.94
2022-08-01T20:38:06.158Z,94851.83
2022-08-01T20:40:21.943Z,94855.55
2022-08-01T20:42:46.462Z,94854.88
2022-08-01T20:45:18.080Z,94858.95
2022-08-01T20:47:39.260Z,94855.89
2022-08-01T20:50:05.638Z,94851.20
2022-08-01T20:52:32.085Z,94850.72
2022-08-01T20:55:00.120Z,94846.84
2022-08-01T20:57:24.849Z,94840.03
2022-08-01T20:59:56.938Z,94844.73
2022-08-01T21:02:17.619Z,94850.06
2022-08-01T21:04:44.010Z,94841.32
2022-08-01T21:07:10.655Z,94849.08
2022-08-01T21:09:39.621Z,94843.78
2022-08-01T21:12:03.182Z,94843.12
2022-08-01T21:14:29.583Z,94847.31
2022-08-01T21:16:55.973Z,94852.02
2022-08-01T21:19:22.397Z,94850.25
2022-08-01T21:21:48.843Z,94848.13
2022-08-01T21:24:15.212Z,94849.43
2022-08-01T21:26:41.595Z,94850.25
2022-08-01T21:29:07.988Z,94847.19
2022-08-01T21:31:40.237Z,94847.31
2022-08-01T21:34:00.892Z,94842.96
2022-08-01T21:36:27.182Z,94844.13
2022-08-01T21:38:53.544Z,94847.00
2022-08-01T21:41:19.923Z,94851.07
2022-08-01T21:43:46.309Z,94847.79
2022-08-01T21:46:12.722Z,94838.73
2022-08-01T21:48:39.106Z,94845.55
2022-08-01T21:51:05.517Z,94847.31
2022-08-01T21:53:33.542Z,94840.03
2022-08-01T21:55:58.303Z,94846.02
2022-08-01T21:58:24.721Z,94838.73
2022-08-01T22:00:51.103Z,94838.41
2022-08-01T22:03:17.494Z,94840.84
2022-08-01T22:05:51.180Z,94837.12
2022-08-01T22:08:10.290Z,94835.83
2022-08-01T22:10:36.675Z,94830.78
2022-08-01T22:13:03.081Z,94834.06
2022-08-01T22:15:45.112Z,94831.25
2022-08-01T22:17:55.845Z,94828.07
2022-08-01T22:20:22.230Z,94828.34
2022-08-01T22:22:52.343Z,94823.17
2022-08-01T22:25:15.008Z,94827.84
2022-08-01T22:28:03.051Z,94823.84
2022-08-01T22:30:07.827Z,94823.84
2022-08-01T22:32:34.208Z,94825.26
2022-08-01T22:35:00.590Z,94823.17
2022-08-01T22:37:56.938Z,94819.95
2022-08-01T22:39:53.370Z,94822.20
2022-08-01T22:42:19.753Z,94826.08
2022-08-01T22:44:46.175Z,94825.13
2022-08-01T22:47:12.557Z,94826.08
2022-08-01T22:49:39.048Z,94820.59
2022-08-01T22:52:09.394Z,94822.20
2022-08-01T22:54:34.160Z,94823.17
2022-08-01T22:57:00.545Z,94821.88
2022-08-01T22:59:26.926Z,94823.64
2022-08-01T23:01:53.400Z,94823.64
2022-08-01T23:04:19.706Z,94818.95
2022-08-01T23:06:46.091Z,94814.72
2022-08-01T23:09:12.521Z,94818.47
2022-08-01T23:11:38.911Z,94818.79
2022-08-01T23:14:05.291Z,94817.78
2022-08-01T23:16:31.678Z,94814.72
2022-08-01T23:18:58.062Z,94816.36
2022-08-01T23:21:24.441Z,94815.06
2022-08-01T23:23:50.827Z,94820.59
2022-08-01T23:26:18.441Z,94817.66
2022-08-01T23:28:43.623Z,94824.47
2022-08-01T23:31:10.024Z,94819.30
2022-08-01T23:33:36.386Z,94811.03
2022-08-01T23:36:02.781Z,94804.72
2022-08-01T23:38:29.186Z,94807.66
2022-08-01T23:40:55.545Z,94802.95
2022-08-01T23:43:21.934Z,94801.98
2022-08-01T23:46:04.397Z,94807.15
2022-08-01T23:48:14.786Z,94799.55
2022-08-01T23:50:41.176Z,94798.25
2022-08-01T23:53:07.577Z,94800.84
2022-08-01T23:55:37.816Z,94795.19
2022-08-01T23:58:00.378Z,94793.90
